Time;durP1;ratioP1;P1;durP2;ratioP2;P2;SDS_P1;SDS_P2;PMS_P1;PMS_P2;Temp;Humidity;BMP_temperature;BMP_pressure;BME280_temperature;BME280_humidity;BME280_pressure;Samples;Min_cycle;Max_cycle;Signal;HPM_P1;HPM_P2
2020/12/21 00:00:57;;;;;;;5.93;2.40;;;7.40;99.90;;;;;;4972169;28;20218;-76
2020/12/21 00:03:23;;;;;;;4.30;2.67;;;7.40;99.90;;;;;;4972023;28;20187;-76
2020/12/21 00:05:49;;;;;;;9.13;2.30;;;7.30;99.90;;;;;;4972312;28;20210;-77
2020/12/21 00:08:14;;;;;;;8.77;2.63;;;7.30;99.90;;;;;;4975573;28;20538;-76
2020/12/21 00:10:40;;;;;;;6.37;2.67;;;7.30;99.90;;;;;;4975871;28;20496;-76
2020/12/21 00:13:06;;;;;;;4.03;2.17;;;7.20;99.90;;;;;;4976328;28;20187;-76
2020/12/21 00:15:32;;;;;;;6.10;2.30;;;7.20;99.90;;;;;;4975485;28;20215;-76
2020/12/21 00:17:57;;;;;;;4.90;2.50;;;7.10;99.90;;;;;;4976321;28;20559;-76
2020/12/21 00:20:23;;;;;;;3.40;2.17;;;7.20;99.90;;;;;;4976134;28;20431;-76
2020/12/21 00:22:49;;;;;;;8.23;2.47;;;7.10;99.90;;;;;;4975781;28;20848;-76
2020/12/21 00:25:14;;;;;;;6.47;2.63;;;7.10;99.90;;;;;;4975709;28;21000;-76
2020/12/21 00:27:40;;;;;;;6.90;2.80;;;7.10;99.90;;;;;;4975112;28;20310;-77
2020/12/21 00:30:06;;;;;;;4.70;1.83;;;7.10;99.90;;;;;;4978680;28;20302;-76
2020/12/21 00:32:35;;;;;;;6.73;2.47;;;7.10;99.90;;;;;;4970687;28;20603;-76
2020/12/21 00:35:01;;;;;;;6.88;3.13;;;7.10;99.90;;;;;;4971600;28;20757;-76
2020/12/21 00:37:27;;;;;;;4.63;2.10;;;7.10;99.90;;;;;;4976245;28;20267;-76
2020/12/21 00:39:52;;;;;;;6.83;2.93;;;7.10;99.90;;;;;;4974971;28;20211;-78
2020/12/21 00:42:18;;;;;;;4.50;2.60;;;7.10;99.90;;;;;;4975255;28;20199;-78
2020/12/21 00:44:44;;;;;;;3.53;2.17;;;7.20;99.90;;;;;;4974945;28;20969;-77
2020/12/21 00:47:10;;;;;;;5.70;3.23;;;7.20;99.90;;;;;;4975530;28;20414;-77
2020/12/21 00:49:36;;;;;;;6.17;2.00;;;7.20;99.90;;;;;;4974803;28;20238;-77
2020/12/21 00:52:02;;;;;;;6.27;1.97;;;7.10;99.90;;;;;;4974897;28;20280;-77
2020/12/21 00:54:28;;;;;;;5.25;2.25;;;7.10;99.90;;;;;;4974864;28;20206;-77
2020/12/21 00:56:57;;;;;;;5.70;2.05;;;7.10;99.90;;;;;;4975026;28;20176;-77
2020/12/21 00:59:23;;;;;;;4.75;1.55;;;7.00;99.90;;;;;;4974434;28;20229;-77
2020/12/21 01:01:48;;;;;;;4.10;2.63;;;7.00;99.90;;;;;;4974853;28;20286;-78
2020/12/21 01:04:14;;;;;;;6.43;1.90;;;7.00;99.90;;;;;;4974687;28;20780;-77
2020/12/21 01:06:40;;;;;;;3.33;1.53;;;6.90;99.90;;;;;;4974912;28;20182;-77
2020/12/21 01:09:10;;;;;;;5.83;1.60;;;6.90;99.90;;;;;;4974531;28;20171;-77
2020/12/21 01:11:36;;;;;;;5.85;1.63;;;6.90;99.90;;;;;;4963313;28;20222;-78
2020/12/21 01:14:02;;;;;;;2.88;2.20;;;6.80;99.90;;;;;;4974939;28;20172;-77
2020/12/21 01:16:28;;;;;;;9.00;2.58;;;6.70;99.90;;;;;;4974296;28;20207;-77
2020/12/21 01:18:54;;;;;;;5.57;2.17;;;6.70;99.90;;;;;;4973533;28;20171;-78
2020/12/21 01:21:24;;;;;;;8.87;3.00;;;6.70;99.90;;;;;;4973783;28;20256;-77
2020/12/21 01:23:50;;;;;;;7.22;2.30;;;6.70;99.90;;;;;;4974563;28;20203;-77
2020/12/21 01:26:16;;;;;;;8.13;2.83;;;6.60;99.90;;;;;;4973033;28;20207;-77
2020/12/21 01:28:42;;;;;;;6.77;2.37;;;6.60;99.90;;;;;;5014307;28;20466;-77
2020/12/21 01:31:07;;;;;;;10.53;2.97;;;6.70;99.90;;;;;;4975335;28;20506;-77
2020/12/21 01:33:33;;;;;;;10.03;2.63;;;6.80;99.90;;;;;;4970629;28;20481;-77
2020/12/21 01:35:59;;;;;;;4.97;1.70;;;6.70;99.90;;;;;;4973785;28;20209;-77
2020/12/21 01:38:24;;;;;;;4.93;1.70;;;6.70;99.90;;;;;;4973093;28;20701;-77
2020/12/21 01:40:50;;;;;;;11.97;3.33;;;6.70;99.90;;;;;;4973748;28;20255;-77
2020/12/21 01:43:17;;;;;;;6.22;2.20;;;6.70;99.90;;;;;;4973973;28;20265;-77
2020/12/21 01:45:42;;;;;;;2.60;2.33;;;6.70;99.90;;;;;;4973886;28;20219;-77
2020/12/21 01:48:09;;;;;;;5.10;2.10;;;6.70;99.90;;;;;;4974249;28;20425;-77
2020/12/21 01:50:35;;;;;;;7.82;2.30;;;6.70;99.90;;;;;;4973364;28;20239;-77
2020/12/21 01:53:02;;;;;;;4.10;2.10;;;6.70;99.90;;;;;;4974239;28;20195;-77
2020/12/21 01:55:32;;;;;;;12.48;4.57;;;6.70;99.90;;;;;;4973497;28;20211;-77
2020/12/21 01:57:58;;;;;;;5.60;2.33;;;6.60;99.90;;;;;;4974180;28;20258;-78
2020/12/21 02:00:24;;;;;;;2.70;2.20;;;6.70;99.90;;;;;;4973498;28;20298;-77
2020/12/21 02:02:50;;;;;;;6.13;1.93;;;6.70;99.90;;;;;;4973627;28;21061;-77
2020/12/21 02:05:16;;;;;;;3.57;1.67;;;6.60;99.90;;;;;;4973790;28;20242;-77
2020/12/21 02:07:42;;;;;;;8.90;2.22;;;6.60;99.90;;;;;;4973849;28;20682;-77
2020/12/21 02:10:08;;;;;;;5.75;1.77;;;6.60;99.90;;;;;;4973500;28;20223;-77
2020/12/21 02:12:33;;;;;;;5.47;2.27;;;6.60;99.90;;;;;;4973281;28;20261;-77
2020/12/21 02:14:59;;;;;;;4.43;2.07;;;6.60;99.90;;;;;;4972054;28;20238;-77
2020/12/21 02:17:24;;;;;;;6.27;2.90;;;6.50;99.90;;;;;;4976267;28;20170;-77
2020/12/21 02:19:51;;;;;;;8.93;2.70;;;6.50;99.90;;;;;;4973219;28;20243;-77
2020/12/21 02:22:16;;;;;;;7.68;2.05;;;6.50;99.90;;;;;;4972029;28;20203;-78
2020/12/21 02:24:42;;;;;;;7.60;2.20;;;6.50;99.90;;;;;;4973002;28;20266;-77
2020/12/21 02:27:08;;;;;;;8.18;3.45;;;6.50;99.90;;;;;;4973671;28;20642;-77
2020/12/21 02:29:34;;;;;;;4.03;2.30;;;6.50;99.90;;;;;;4987838;28;20214;-77
2020/12/21 02:32:00;;;;;;;9.50;2.87;;;6.50;99.90;;;;;;4972543;28;20307;-77
2020/12/21 02:34:27;;;;;;;8.63;2.60;;;6.50;99.90;;;;;;4969085;28;20290;-76
2020/12/21 02:36:54;;;;;;;9.65;3.00;;;6.50;99.90;;;;;;4973656;28;20178;-77
2020/12/21 02:39:20;;;;;;;5.28;2.58;;;6.50;99.90;;;;;;4973318;28;20229;-76
2020/12/21 02:41:46;;;;;;;6.10;2.70;;;6.50;99.90;;;;;;4973070;28;20330;-76
2020/12/21 02:44:12;;;;;;;8.63;3.40;;;6.50;99.90;;;;;;4973765;28;20652;-76
2020/12/21 02:46:37;;;;;;;6.33;3.07;;;6.50;99.90;;;;;;4972010;28;20179;-77
2020/12/21 02:49:03;;;;;;;8.50;2.67;;;6.60;99.90;;;;;;4972286;28;20202;-76
2020/12/21 02:51:29;;;;;;;5.30;2.83;;;6.60;99.90;;;;;;4971755;28;20238;-76
2020/12/21 02:53:54;;;;;;;7.43;2.30;;;6.60;99.90;;;;;;4973011;28;20570;-76
2020/12/21 02:56:20;;;;;;;5.43;1.73;;;6.70;99.90;;;;;;4972760;28;20218;-76
2020/12/21 02:58:46;;;;;;;7.53;2.10;;;6.70;99.90;;;;;;4973333;28;20253;-77
2020/12/21 03:01:12;;;;;;;7.87;2.10;;;6.80;99.90;;;;;;4972519;28;20589;-76
2020/12/21 03:03:38;;;;;;;6.07;2.00;;;6.80;99.90;;;;;;4973148;28;20178;-76
2020/12/21 03:06:03;;;;;;;5.70;2.03;;;6.80;99.90;;;;;;4972747;28;20604;-76
2020/12/21 03:08:29;;;;;;;3.80;2.00;;;6.80;99.90;;;;;;4973160;28;20172;-76
2020/12/21 03:10:54;;;;;;;8.63;2.43;;;6.90;99.90;;;;;;4971041;28;20306;-76
2020/12/21 03:13:20;;;;;;;7.80;2.23;;;6.90;99.90;;;;;;4972753;28;20208;-77
2020/12/21 03:15:46;;;;;;;4.43;2.13;;;6.90;99.90;;;;;;4971881;28;20211;-77
2020/12/21 03:18:11;;;;;;;2.50;1.70;;;6.90;99.90;;;;;;4972633;28;20171;-77
2020/12/21 03:20:37;;;;;;;4.87;2.80;;;6.90;99.90;;;;;;4971997;28;20207;-77
2020/12/21 03:23:03;;;;;;;3.43;1.80;;;7.00;99.90;;;;;;4972379;28;20293;-77
2020/12/21 03:25:28;;;;;;;10.87;2.20;;;7.00;99.90;;;;;;4971864;28;20245;-78
2020/12/21 03:27:54;;;;;;;4.20;2.50;;;7.00;99.90;;;;;;4974785;28;20191;-77
2020/12/21 03:30:20;;;;;;;5.40;2.30;;;7.00;99.90;;;;;;4976859;28;20223;-77
2020/12/21 03:32:46;;;;;;;7.70;2.00;;;7.00;99.90;;;;;;4971968;28;20191;-77
2020/12/21 03:35:11;;;;;;;5.47;3.03;;;7.00;99.90;;;;;;4970720;28;20289;-77
2020/12/21 03:37:37;;;;;;;4.97;1.83;;;7.00;99.90;;;;;;4972655;28;20414;-77
2020/12/21 03:40:05;;;;;;;8.83;2.77;;;7.00;99.90;;;;;;4971156;28;20215;-77
2020/12/21 03:42:31;;;;;;;7.15;1.85;;;7.00;99.90;;;;;;4972174;28;20194;-77
2020/12/21 03:44:56;;;;;;;4.93;1.90;;;6.90;99.90;;;;;;4971782;28;20195;-77
2020/12/21 03:47:22;;;;;;;5.83;2.20;;;7.00;99.90;;;;;;4972266;28;20171;-77
2020/12/21 03:49:48;;;;;;;3.27;2.03;;;7.00;99.90;;;;;;4971870;28;20578;-77
2020/12/21 03:52:14;;;;;;;9.27;2.15;;;6.90;99.90;;;;;;4970540;28;20233;-77
2020/12/21 03:54:40;;;;;;;9.13;2.30;;;6.90;99.90;;;;;;4970159;28;20242;-77
2020/12/21 03:57:05;;;;;;;15.17;2.53;;;6.90;99.90;;;;;;4972197;28;20170;-78
2020/12/21 03:59:31;;;;;;;11.57;3.30;;;6.80;99.90;;;;;;4970511;28;20257;-78
2020/12/21 04:01:57;;;;;;;4.90;1.65;;;6.80;99.90;;;;;;4971700;28;20837;-77
2020/12/21 04:04:23;;;;;;;7.57;2.13;;;6.80;99.90;;;;;;4971452;28;20183;-77
2020/12/21 04:06:48;;;;;;;1.93;1.70;;;6.70;99.90;;;;;;4972554;28;20184;-77
2020/12/21 04:09:14;;;;;;;7.00;1.70;;;6.80;99.90;;;;;;4971451;28;20202;-77
2020/12/21 04:11:40;;;;;;;3.77;2.20;;;6.70;99.90;;;;;;4971870;28;20256;-77
2020/12/21 04:14:05;;;;;;;11.87;2.63;;;6.70;99.90;;;;;;4971669;28;20516;-77
2020/12/21 04:16:31;;;;;;;5.40;1.80;;;6.70;99.90;;;;;;4970359;28;20419;-77
2020/12/21 04:18:57;;;;;;;5.00;1.80;;;6.70;99.90;;;;;;4973872;28;20183;-77
2020/12/21 04:21:23;;;;;;;10.10;4.17;;;6.70;99.90;;;;;;4971547;28;20470;-78
2020/12/21 04:23:48;;;;;;;4.17;2.13;;;6.70;99.90;;;;;;4970535;28;20199;-77
2020/12/21 04:26:14;;;;;;;5.00;1.67;;;6.70;99.90;;;;;;4969289;28;20214;-78
2020/12/21 04:28:40;;;;;;;6.67;3.30;;;6.70;99.90;;;;;;4979962;28;20181;-77
2020/12/21 04:31:07;;;;;;;7.93;2.37;;;6.70;99.90;;;;;;4978016;28;20693;-77
2020/12/21 04:33:33;;;;;;;5.68;2.60;;;6.70;99.90;;;;;;4971749;28;20175;-77
2020/12/21 04:35:59;;;;;;;9.25;3.40;;;6.70;99.90;;;;;;4969708;28;20294;-77
2020/12/21 04:38:25;;;;;;;9.03;3.43;;;6.80;99.90;;;;;;4971946;28;20259;-77
2020/12/21 04:40:55;;;;;;;5.77;2.30;;;6.80;99.90;;;;;;4971095;28;20582;-77
2020/12/21 04:43:22;;;;;;;3.40;2.13;;;6.80;99.90;;;;;;4971620;28;20461;-78
2020/12/21 04:45:52;;;;;;;7.20;3.13;;;6.80;99.90;;;;;;4970661;28;20777;-77
2020/12/21 04:48:22;;;;;;;8.38;3.88;;;6.80;99.90;;;;;;4971594;28;20226;-77
2020/12/21 04:50:53;;;;;;;4.35;2.45;;;6.80;99.90;;;;;;4969700;28;20215;-77
2020/12/21 04:53:20;;;;;;;5.82;2.85;;;7.00;99.90;;;;;;4971503;28;20191;-77
2020/12/21 04:55:46;;;;;;;7.80;2.85;;;7.00;99.90;;;;;;4973569;28;20234;-77
2020/12/21 04:58:12;;;;;;;6.40;2.03;;;7.00;99.90;;;;;;4974918;28;20203;-77
2020/12/21 05:00:37;;;;;;;5.17;2.40;;;7.00;99.90;;;;;;4974763;28;20253;-77
2020/12/21 05:03:04;;;;;;;12.80;2.53;;;7.00;99.90;;;;;;4974607;28;20210;-77
2020/12/21 05:05:31;;;;;;;4.03;2.35;;;7.00;99.90;;;;;;4974536;28;20693;-77
2020/12/21 05:08:06;;;;;;;7.32;2.30;;;7.10;99.90;;;;;;4973730;28;20183;-76
2020/12/21 05:10:32;;;;;;;7.50;2.10;;;7.10;99.90;;;;;;4974828;28;20249;-76
2020/12/21 05:13:02;;;;;;;4.50;2.10;;;7.30;99.90;;;;;;4973915;28;20195;-76
2020/12/21 05:15:28;;;;;;;6.03;2.30;;;7.30;99.90;;;;;;4974389;28;20218;-76
2020/12/21 05:18:10;;;;;;;7.63;2.40;;;7.20;99.90;;;;;;4974909;28;20168;-76
2020/12/21 05:20:37;;;;;;;5.55;2.35;;;7.10;99.90;;;;;;4974701;28;20481;-76
2020/12/21 05:23:06;;;;;;;8.45;2.90;;;7.20;99.90;;;;;;4974750;28;20268;-76
2020/12/21 05:25:32;;;;;;;4.05;1.73;;;7.30;99.90;;;;;;4973994;28;20215;-76
2020/12/21 05:28:12;;;;;;;4.55;1.83;;;7.20;99.90;;;;;;4974629;28;20168;-77
2020/12/21 05:31:14;;;;;;;2.13;1.80;;;7.10;99.90;;;;;;4974001;28;20909;-77
2020/12/21 05:33:41;;;;;;;6.85;2.25;;;6.90;99.90;;;;;;4933238;29;20524;-77
2020/12/21 05:36:19;;;;;;;6.10;2.10;;;6.80;99.90;;;;;;4965903;28;20214;-77
2020/12/21 05:38:59;;;;;;;3.72;2.05;;;6.70;99.90;;;;;;4974419;28;20233;-77
2020/12/21 05:41:25;;;;;;;5.60;2.00;;;6.70;99.90;;;;;;4972469;28;20219;-77
2020/12/21 05:43:53;;;;;;;6.80;2.00;;;6.60;99.90;;;;;;4973920;28;20182;-77
2020/12/21 05:46:25;;;;;;;6.78;2.20;;;6.60;99.90;;;;;;4973768;28;20874;-77
2020/12/21 05:48:52;;;;;;;3.92;2.15;;;6.60;99.90;;;;;;4973784;28;20175;-77
2020/12/21 05:51:37;;;;;;;4.07;1.45;;;6.60;99.90;;;;;;4973607;28;20211;-77
2020/12/21 05:54:06;;;;;;;5.45;1.90;;;6.60;99.90;;;;;;4958895;28;20196;-77
2020/12/21 05:56:33;;;;;;;5.25;2.80;;;6.60;99.90;;;;;;4973675;28;20203;-77
2020/12/21 05:59:00;;;;;;;4.57;1.60;;;6.60;99.90;;;;;;4966300;28;20176;-77
2020/12/21 06:01:27;;;;;;;5.45;2.60;;;6.60;99.90;;;;;;4972341;28;20207;-77
2020/12/21 06:04:01;;;;;;;4.70;2.20;;;6.60;99.90;;;;;;4973729;28;20182;-77
2020/12/21 06:06:28;;;;;;;7.22;1.92;;;6.60;99.90;;;;;;4970982;28;20211;-77
2020/12/21 06:08:56;;;;;;;4.57;1.90;;;6.60;99.90;;;;;;4973900;28;20203;-78
2020/12/21 06:11:25;;;;;;;5.15;2.13;;;6.60;99.90;;;;;;4973325;28;20219;-77
2020/12/21 06:14:14;;;;;;;6.97;1.75;;;6.50;99.90;;;;;;4974308;28;20643;-77
2020/12/21 06:16:41;;;;;;;6.18;2.65;;;6.60;99.90;;;;;;4973283;28;20258;-77
2020/12/21 06:19:10;;;;;;;4.82;1.98;;;6.60;99.90;;;;;;4973680;28;20175;-77
2020/12/21 06:21:41;;;;;;;5.95;2.05;;;6.60;99.90;;;;;;5003982;28;20641;-77
2020/12/21 06:24:18;;;;;;;8.55;2.75;;;6.50;99.90;;;;;;4973502;28;20183;-77
2020/12/21 06:26:44;;;;;;;5.72;2.05;;;6.50;99.90;;;;;;4982761;28;20238;-77
2020/12/21 06:29:22;;;;;;;4.82;2.33;;;6.60;99.90;;;;;;4979580;28;20692;-77
2020/12/21 06:31:55;;;;;;;4.88;1.80;;;6.60;99.90;;;;;;4973044;28;20573;-77
2020/12/21 06:34:29;;;;;;;6.57;1.88;;;6.60;99.90;;;;;;4972596;28;20171;-77
2020/12/21 06:37:09;;;;;;;3.53;2.05;;;6.60;99.90;;;;;;4973048;28;20290;-77
2020/12/21 06:39:36;;;;;;;6.07;2.10;;;6.70;99.90;;;;;;4972656;28;20300;-77
2020/12/21 06:42:13;;;;;;;7.55;2.08;;;6.70;99.90;;;;;;4973526;28;20202;-77
2020/12/21 06:44:40;;;;;;;11.25;2.30;;;6.70;99.90;;;;;;4972879;28;20219;-77
2020/12/21 06:47:10;;;;;;;7.07;2.15;;;6.70;99.90;;;;;;4972240;28;20586;-77
2020/12/21 06:49:36;;;;;;;6.78;2.58;;;6.70;99.90;;;;;;4972664;28;20626;-77
2020/12/21 06:52:04;;;;;;;4.53;2.50;;;6.70;99.90;;;;;;4971578;28;20199;-77
2020/12/21 06:54:30;;;;;;;9.70;2.30;;;6.70;99.90;;;;;;4971334;28;20211;-77
2020/12/21 06:56:56;;;;;;;5.10;2.27;;;6.70;99.90;;;;;;4973053;28;20175;-77
2020/12/21 06:59:25;;;;;;;4.93;1.90;;;6.70;99.90;;;;;;4972169;28;20182;-77
2020/12/21 07:01:52;;;;;;;6.57;2.08;;;6.70;99.90;;;;;;4971046;28;20281;-77
2020/12/21 07:04:23;;;;;;;8.68;3.35;;;6.80;99.90;;;;;;4971477;28;20171;-77
2020/12/21 07:06:50;;;;;;;7.10;1.90;;;6.80;99.90;;;;;;4972308;28;20646;-77
2020/12/21 07:09:22;;;;;;;8.23;2.25;;;6.70;99.90;;;;;;4970416;28;20183;-77
2020/12/21 07:11:53;;;;;;;6.43;3.08;;;6.80;99.90;;;;;;4971983;28;20210;-78
2020/12/21 07:14:21;;;;;;;5.25;2.40;;;6.80;99.90;;;;;;4970368;28;20178;-77
2020/12/21 07:16:47;;;;;;;6.10;2.10;;;6.80;99.90;;;;;;4971869;28;20163;-77
2020/12/21 07:19:12;;;;;;;4.33;2.30;;;6.90;99.90;;;;;;4971611;28;20278;-77
2020/12/21 07:21:39;;;;;;;4.70;1.70;;;6.80;99.90;;;;;;4971454;28;20253;-77
2020/12/21 07:24:09;;;;;;;9.50;2.58;;;6.80;99.90;;;;;;4972429;28;20642;-76
2020/12/21 07:26:36;;;;;;;5.85;1.85;;;6.80;99.90;;;;;;5002414;28;20654;-76
2020/12/21 07:29:02;;;;;;;3.85;2.13;;;6.80;99.90;;;;;;4971336;28;20175;-77
2020/12/21 07:31:28;;;;;;;9.40;2.30;;;6.80;99.90;;;;;;4970240;28;20274;-77
2020/12/21 07:34:00;;;;;;;4.70;2.27;;;6.80;99.90;;;;;;4971650;28;20656;-77
2020/12/21 07:36:28;;;;;;;7.05;2.17;;;6.80;99.90;;;;;;4966208;28;20462;-76
2020/12/21 07:39:11;;;;;;;6.57;2.15;;;6.90;99.90;;;;;;4971905;28;20172;-76
2020/12/21 07:41:51;;;;;;;8.73;2.67;;;6.90;99.90;;;;;;4972088;28;20210;-76
2020/12/21 07:44:28;;;;;;;4.78;2.17;;;6.90;99.90;;;;;;4971257;28;20178;-77
2020/12/21 07:47:00;;;;;;;2.80;2.00;;;6.90;99.90;;;;;;4972012;28;20577;-77
2020/12/21 07:49:26;;;;;;;7.43;2.50;;;6.90;99.90;;;;;;4970972;28;21832;-77
2020/12/21 07:51:58;;;;;;;4.03;2.92;;;6.90;99.90;;;;;;4971484;28;20708;-77
2020/12/21 07:54:25;;;;;;;3.63;2.05;;;6.90;99.90;;;;;;4969645;28;20179;-77
2020/12/21 07:57:05;;;;;;;4.28;2.15;;;6.90;99.90;;;;;;4971527;28;20198;-77
2020/12/21 07:59:30;;;;;;;3.08;2.10;;;7.00;99.90;;;;;;4971327;28;20226;-77
2020/12/21 08:01:57;;;;;;;5.10;2.40;;;7.00;99.90;;;;;;4970255;28;20651;-77
2020/12/21 08:04:24;;;;;;;4.82;2.60;;;7.00;99.90;;;;;;4971432;28;20171;-77
2020/12/21 08:06:50;;;;;;;4.43;2.90;;;7.10;99.90;;;;;;4969649;28;20677;-77
2020/12/21 08:09:16;;;;;;;6.40;2.25;;;7.10;99.90;;;;;;4971187;28;20179;-77
2020/12/21 08:11:42;;;;;;;6.68;3.30;;;7.20;99.90;;;;;;4971206;28;20230;-77
2020/12/21 08:14:15;;;;;;;5.50;2.83;;;7.40;99.90;;;;;;4971135;28;20665;-77
2020/12/21 08:16:40;;;;;;;9.50;2.95;;;7.40;99.90;;;;;;4971434;28;20583;-78
2020/12/21 08:19:13;;;;;;;9.20;2.60;;;7.60;99.90;;;;;;4971710;28;20243;-77
2020/12/21 08:21:39;;;;;;;4.80;2.30;;;7.50;99.90;;;;;;4971566;28;20187;-77
2020/12/21 08:24:05;;;;;;;5.40;2.60;;;7.40;99.90;;;;;;4969670;28;20183;-77
2020/12/21 08:26:35;;;;;;;5.43;3.00;;;7.40;99.90;;;;;;4971124;28;20266;-78
2020/12/21 08:29:02;;;;;;;4.43;3.08;;;7.50;99.90;;;;;;4970149;28;20182;-77
2020/12/21 08:31:28;;;;;;;4.90;2.50;;;7.80;99.90;;;;;;4974124;28;20713;-77
2020/12/21 08:34:06;;;;;;;5.10;2.17;;;7.90;99.90;;;;;;4975246;28;20163;-77
2020/12/21 08:36:38;;;;;;;4.20;2.00;;;8.00;99.90;;;;;;4973832;28;20327;-77
2020/12/21 08:39:18;;;;;;;3.05;1.80;;;8.10;99.90;;;;;;4974918;28;20184;-77
2020/12/21 08:41:50;;;;;;;3.58;1.90;;;8.20;99.90;;;;;;4974794;28;20210;-77
2020/12/21 08:44:21;;;;;;;6.28;1.75;;;8.20;99.90;;;;;;4964731;28;20551;-77
2020/12/21 08:46:49;;;;;;;5.60;2.00;;;8.20;99.90;;;;;;4974343;28;20182;-77
2020/12/21 08:49:15;;;;;;;5.25;1.80;;;8.20;99.90;;;;;;4974339;28;20194;-77
2020/12/21 08:51:41;;;;;;;3.22;1.65;;;8.20;99.90;;;;;;4974749;28;20678;-77
2020/12/21 08:54:07;;;;;;;3.53;2.30;;;8.20;99.90;;;;;;4973500;28;20682;-78
2020/12/21 08:56:32;;;;;;;5.60;1.70;;;8.20;99.90;;;;;;4973590;28;20258;-77
2020/12/21 08:58:58;;;;;;;4.50;1.97;;;8.20;99.90;;;;;;4973605;28;20426;-77
2020/12/21 09:01:24;;;;;;;3.30;1.70;;;8.20;99.90;;;;;;4974056;28;20215;-77
2020/12/21 09:03:49;;;;;;;5.53;2.20;;;8.10;99.90;;;;;;4973198;28;20175;-77
2020/12/21 09:06:20;;;;;;;3.23;2.03;;;8.10;99.90;;;;;;4972590;28;20207;-77
2020/12/21 09:08:45;;;;;;;4.20;2.20;;;8.20;99.90;;;;;;4975109;28;20171;-77
2020/12/21 09:11:11;;;;;;;9.70;2.33;;;8.10;99.90;;;;;;4974269;28;20701;-77
2020/12/21 09:13:40;;;;;;;3.97;2.57;;;8.10;99.90;;;;;;4974093;28;20182;-77
2020/12/21 09:16:05;;;;;;;5.68;2.30;;;8.10;99.90;;;;;;4973626;28;20211;-77
2020/12/21 09:18:31;;;;;;;8.60;2.10;;;8.20;99.90;;;;;;4974034;28;20245;-76
2020/12/21 09:20:56;;;;;;;6.13;2.40;;;8.20;99.90;;;;;;4974631;28;20302;-77
2020/12/21 09:23:22;;;;;;;8.10;2.30;;;8.20;99.90;;;;;;5005878;28;20293;-76
2020/12/21 09:25:48;;;;;;;10.00;2.10;;;8.20;99.90;;;;;;4973573;28;20219;-77
2020/12/21 09:28:13;;;;;;;7.40;2.50;;;8.20;99.90;;;;;;4973943;28;20229;-76
2020/12/21 09:30:39;;;;;;;14.23;2.40;;;8.20;99.90;;;;;;4972793;28;20637;-76
2020/12/21 09:33:05;;;;;;;10.80;2.83;;;8.20;99.90;;;;;;4973319;28;20214;-77
2020/12/21 09:35:30;;;;;;;10.30;2.70;;;8.20;99.90;;;;;;4973733;28;20258;-77
2020/12/21 09:37:56;;;;;;;9.23;2.57;;;8.20;99.90;;;;;;4974065;28;20171;-77
2020/12/21 09:40:22;;;;;;;6.73;2.60;;;8.10;99.90;;;;;;4973156;28;20717;-78
2020/12/21 09:42:48;;;;;;;7.95;2.97;;;8.10;99.90;;;;;;4972241;28;20191;-78
2020/12/21 09:45:14;;;;;;;8.67;3.17;;;8.10;99.90;;;;;;4972097;28;20298;-78
2020/12/21 09:47:39;;;;;;;8.17;3.67;;;8.10;99.90;;;;;;4973754;28;20254;-77
2020/12/21 09:50:05;;;;;;;4.73;2.70;;;8.10;99.90;;;;;;4973519;28;20384;-77
2020/12/21 09:52:31;;;;;;;9.43;3.13;;;8.00;99.90;;;;;;4973086;28;20191;-76
2020/12/21 09:54:57;;;;;;;3.33;2.40;;;8.00;99.90;;;;;;4965155;28;20203;-76
2020/12/21 09:57:22;;;;;;;4.33;2.50;;;8.00;99.90;;;;;;4966465;28;20418;-76
2020/12/21 09:59:48;;;;;;;12.67;3.73;;;8.10;99.90;;;;;;4969860;28;20581;-76
2020/12/21 10:02:14;;;;;;;9.57;2.70;;;8.20;99.90;;;;;;4971862;28;20710;-77
2020/12/21 10:04:39;;;;;;;5.27;2.77;;;8.10;99.90;;;;;;4972049;28;20215;-76
2020/12/21 10:07:05;;;;;;;8.73;2.70;;;8.10;99.90;;;;;;4971594;28;20542;-77
2020/12/21 10:09:31;;;;;;;5.60;2.10;;;8.20;99.90;;;;;;4971285;28;20203;-76
2020/12/21 10:11:56;;;;;;;6.33;3.17;;;8.10;99.90;;;;;;4972587;28;20282;-78
2020/12/21 10:14:22;;;;;;;4.97;2.40;;;8.10;99.90;;;;;;4971649;28;20222;-77
2020/12/21 10:16:53;;;;;;;3.40;2.37;;;8.20;99.90;;;;;;4972488;28;20177;-77
2020/12/21 10:19:18;;;;;;;5.82;2.72;;;8.10;99.90;;;;;;4971394;28;20567;-77
2020/12/21 10:21:44;;;;;;;4.03;1.70;;;8.20;99.90;;;;;;4972671;28;20202;-77
2020/12/21 10:24:10;;;;;;;2.50;1.57;;;8.30;99.90;;;;;;4975020;28;20575;-77
2020/12/21 10:26:39;;;;;;;8.17;2.10;;;8.20;99.90;;;;;;4973096;28;20171;-77
2020/12/21 10:29:05;;;;;;;4.72;2.28;;;8.40;99.90;;;;;;4972977;28;20223;-77
2020/12/21 10:31:31;;;;;;;6.73;2.30;;;8.50;99.90;;;;;;4972219;28;20240;-77
2020/12/21 10:33:56;;;;;;;2.07;1.50;;;8.50;99.90;;;;;;4972215;28;20183;-77
2020/12/21 10:36:22;;;;;;;3.83;1.97;;;8.50;99.90;;;;;;4972154;28;20218;-77
2020/12/21 10:38:49;;;;;;;6.00;1.83;;;8.60;99.90;;;;;;4972819;28;20182;-77
2020/12/21 10:41:16;;;;;;;2.80;1.67;;;8.70;99.90;;;;;;4972156;28;20207;-77
2020/12/21 10:43:42;;;;;;;3.03;1.25;;;8.70;99.90;;;;;;4972355;28;20272;-77
2020/12/21 10:46:09;;;;;;;2.80;1.63;;;8.70;99.90;;;;;;4971499;28;20208;-77
2020/12/21 10:48:35;;;;;;;4.07;1.75;;;8.80;99.90;;;;;;4970807;28;20249;-78
2020/12/21 10:51:00;;;;;;;2.40;1.67;;;8.70;99.90;;;;;;4963330;28;20702;-77
2020/12/21 10:53:26;;;;;;;5.33;1.77;;;8.90;99.90;;;;;;4971290;28;20432;-77
2020/12/21 10:55:52;;;;;;;2.50;1.60;;;8.80;99.90;;;;;;4971731;28;20269;-77
2020/12/21 10:58:17;;;;;;;2.97;2.00;;;8.80;99.90;;;;;;4971885;28;20285;-77
2020/12/21 11:00:45;;;;;;;4.70;1.30;;;8.90;99.90;;;;;;4970981;28;20218;-77
2020/12/21 11:03:11;;;;;;;2.15;1.95;;;8.80;99.90;;;;;;4971506;28;20285;-78
2020/12/21 11:05:37;;;;;;;2.05;1.35;;;8.80;99.90;;;;;;4972266;28;20244;-76
2020/12/21 11:08:06;;;;;;;3.30;1.40;;;8.90;99.90;;;;;;4973248;28;20183;-76
2020/12/21 11:10:31;;;;;;;1.92;1.27;;;9.00;99.90;;;;;;4972353;28;20214;-76
2020/12/21 11:12:57;;;;;;;6.00;1.90;;;9.00;99.90;;;;;;4975007;28;20192;-76
2020/12/21 11:15:23;;;;;;;1.80;1.43;;;9.00;99.90;;;;;;5004657;28;20211;-76
2020/12/21 11:17:49;;;;;;;2.90;1.60;;;9.00;99.90;;;;;;4967073;28;20206;-77
2020/12/21 11:20:15;;;;;;;2.23;1.80;;;9.10;99.90;;;;;;4971479;28;20226;-77
2020/12/21 11:22:42;;;;;;;3.35;1.80;;;9.10;99.90;;;;;;4969977;28;20282;-77
2020/12/21 11:25:08;;;;;;;5.93;1.80;;;9.10;99.90;;;;;;4971318;28;20232;-76
2020/12/21 11:27:34;;;;;;;2.13;1.50;;;9.10;99.90;;;;;;4972560;28;20664;-77
2020/12/21 11:30:00;;;;;;;2.03;1.27;;;9.20;99.90;;;;;;4970785;28;20208;-77
2020/12/21 11:32:25;;;;;;;3.53;1.40;;;9.20;99.90;;;;;;4971854;28;20459;-78
2020/12/21 11:34:51;;;;;;;2.80;1.40;;;9.20;99.90;;;;;;4972443;28;20238;-77
2020/12/21 11:37:17;;;;;;;2.13;1.53;;;9.20;99.90;;;;;;4972640;28;20173;-76
2020/12/21 11:39:43;;;;;;;7.00;2.10;;;9.10;99.90;;;;;;4972058;28;20219;-77
2020/12/21 11:42:09;;;;;;;4.70;1.73;;;9.20;99.90;;;;;;4973615;28;20203;-76
2020/12/21 11:44:35;;;;;;;4.82;0.90;;;9.20;99.90;;;;;;4973787;28;20247;-77
2020/12/21 11:47:01;;;;;;;2.80;1.13;;;9.30;99.90;;;;;;4972314;28;20199;-77
2020/12/21 11:49:27;;;;;;;2.17;0.80;;;9.30;99.90;;;;;;4973259;28;20264;-76
2020/12/21 11:51:55;;;;;;;2.97;1.67;;;9.30;99.90;;;;;;4975188;28;20593;-76
2020/12/21 11:54:21;;;;;;;2.80;1.25;;;9.40;99.90;;;;;;4964745;28;20556;-76
2020/12/21 11:56:47;;;;;;;3.10;1.33;;;9.40;99.90;;;;;;4968293;28;20159;-77
2020/12/21 11:59:13;;;;;;;0.97;0.70;;;9.40;99.90;;;;;;4972512;28;20181;-77
2020/12/21 12:01:38;;;;;;;2.50;1.20;;;9.40;99.90;;;;;;4971745;28;20192;-78
2020/12/21 12:04:04;;;;;;;1.43;1.23;;;9.30;99.90;;;;;;4974779;28;20255;-77
2020/12/21 12:06:30;;;;;;;3.63;1.20;;;9.30;99.90;;;;;;4978929;28;20216;-76
2020/12/21 12:08:56;;;;;;;4.70;1.73;;;9.40;99.90;;;;;;4978661;28;20167;-76
2020/12/21 12:11:23;;;;;;;5.10;1.90;;;9.40;99.90;;;;;;4975008;28;20485;-77
2020/12/21 12:13:51;;;;;;;3.20;1.48;;;9.40;99.90;;;;;;4976902;28;20626;-77
2020/12/21 12:16:24;;;;;;;2.15;1.40;;;9.40;99.90;;;;;;4975842;28;20214;-76
2020/12/21 12:18:50;;;;;;;3.38;1.50;;;9.50;99.90;;;;;;4974256;28;20266;-77
2020/12/21 12:21:23;;;;;;;5.57;1.47;;;9.40;99.90;;;;;;4977195;28;20579;-76
2020/12/21 12:23:49;;;;;;;1.23;0.98;;;9.40;99.90;;;;;;4973540;28;20775;-77
2020/12/21 12:26:17;;;;;;;2.28;1.30;;;9.50;99.90;;;;;;4973798;28;20217;-77
2020/12/21 12:28:43;;;;;;;1.63;1.15;;;9.40;99.90;;;;;;4975762;28;20658;-77
2020/12/21 12:31:14;;;;;;;2.57;1.23;;;9.50;99.90;;;;;;4979960;28;20215;-76
2020/12/21 12:33:39;;;;;;;1.65;1.40;;;9.40;99.90;;;;;;4974459;28;20458;-78
2020/12/21 12:36:05;;;;;;;1.37;0.83;;;9.40;99.90;;;;;;4972733;28;20200;-77
2020/12/21 12:38:31;;;;;;;1.60;0.90;;;9.40;99.90;;;;;;4975280;28;20176;-76
2020/12/21 12:40:57;;;;;;;1.53;1.10;;;9.50;99.90;;;;;;4973760;28;20219;-76
2020/12/21 12:43:22;;;;;;;1.52;1.20;;;9.50;99.90;;;;;;4976686;28;20213;-76
2020/12/21 12:45:48;;;;;;;6.70;1.10;;;9.60;99.90;;;;;;4973150;28;20287;-76
2020/12/21 12:48:14;;;;;;;1.27;0.93;;;9.60;99.90;;;;;;4972885;28;20541;-76
2020/12/21 12:50:39;;;;;;;3.40;1.40;;;9.50;99.90;;;;;;4974853;28;20223;-76
2020/12/21 12:53:05;;;;;;;1.53;1.00;;;9.50;99.90;;;;;;4978400;28;20195;-76
2020/12/21 12:55:33;;;;;;;1.40;1.17;;;9.50;99.90;;;;;;4973606;28;20612;-77